Time;durP1;ratioP1;P1;durP2;ratioP2;P2;SDS_P1;SDS_P2;PMS_P1;PMS_P2;Temp;Humidity;BMP_temperature;BMP_pressure;BME280_temperature;BME280_humidity;BME280_pressure;Samples;Min_cycle;Max_cycle;Signal;HPM_P1;HPM_P2
2023/06/18 00:00:25;;;;;;;8.85;7.40;;;;;;;21.98;52.24;99851.34;1650055;87;21121;-65
2023/06/18 00:02:53;;;;;;;10.23;7.62;;;;;;;21.94;52.33;99852.47;1649855;87;21078;-65
2023/06/18 00:05:23;;;;;;;10.25;7.30;;;;;;;21.90;52.25;99854.17;1649941;87;21335;-67
2023/06/18 00:07:52;;;;;;;10.20;7.58;;;;;;;21.93;52.37;99852.20;1649624;86;21515;-66
2023/06/18 00:10:21;;;;;;;9.10;7.22;;;;;;;21.95;52.09;99851.91;1649762;86;21085;-63
2023/06/18 00:12:50;;;;;;;9.88;7.22;;;;;;;21.97;52.09;99847.72;1665187;85;21120;-66
2023/06/18 00:15:18;;;;;;;9.35;7.40;;;;;;;21.99;51.99;99844.64;1680943;85;21032;-65
2023/06/18 00:17:47;;;;;;;10.75;7.50;;;;;;;21.96;52.34;99850.23;1680919;85;21064;-65
2023/06/18 00:20:17;;;;;;;18.48;8.13;;;;;;;21.95;52.32;99848.56;1680719;85;21465;-65
2023/06/18 00:22:48;;;;;;;11.20;7.67;;;;;;;21.92;52.27;99845.52;1680734;85;21072;-65
2023/06/18 00:25:17;;;;;;;12.03;8.33;;;;;;;21.92;51.96;99842.72;1681024;85;21084;-64
2023/06/18 00:27:46;;;;;;;11.57;8.40;;;;;;;21.92;52.11;99843.56;1680746;85;21104;-66
2023/06/18 00:30:15;;;;;;;10.93;7.50;;;;;;;21.92;52.24;99842.72;1680830;85;21068;-66
2023/06/18 00:32:45;;;;;;;16.73;8.60;;;;;;;21.95;52.64;99851.35;1680971;85;21009;-65
2023/06/18 00:35:15;;;;;;;13.68;8.63;;;;;;;21.99;52.25;99846.03;1681651;85;21060;-64
2023/06/18 00:37:43;;;;;;;12.35;7.85;;;;;;;22.03;52.38;99841.58;1683549;85;21017;-64
2023/06/18 00:40:13;;;;;;;12.75;8.50;;;;;;;22.05;52.64;99847.71;1684158;85;21064;-64
2023/06/18 00:42:43;;;;;;;13.62;8.78;;;;;;;22.02;52.69;99844.90;1682930;85;21056;-66
2023/06/18 00:45:13;;;;;;;11.45;7.87;;;;;;;22.01;52.78;99839.05;1681331;85;21088;-65
2023/06/18 00:47:44;;;;;;;11.48;7.75;;;;;;;22.00;52.92;99846.31;1680813;85;21080;-65
2023/06/18 00:50:14;;;;;;;10.70;7.72;;;;;;;21.97;52.95;99839.91;1680688;85;21520;-65
2023/06/18 00:52:47;;;;;;;10.88;7.97;;;;;;;21.96;53.01;99846.05;1681041;85;21898;-65
2023/06/18 00:55:20;;;;;;;11.03;8.15;;;;;;;21.89;53.08;99844.12;1680856;85;21048;-66
2023/06/18 00:57:59;;;;;;;11.85;8.35;;;;;;;21.85;52.99;99843.03;1680811;85;21041;-67
2023/06/18 01:00:23;;;;;;;12.53;7.70;;;;;;;21.81;52.76;99839.14;1680005;85;21041;-66
2023/06/18 01:02:53;;;;;;;11.75;7.80;;;;;;;21.83;52.59;99839.70;1647522;87;21115;-66
2023/06/18 01:05:23;;;;;;;10.68;8.15;;;;;;;21.83;52.83;99842.48;1667855;86;21310;-65
2023/06/18 01:07:51;;;;;;;11.30;8.25;;;;;;;21.82;53.28;99843.60;1677475;85;21517;-65
2023/06/18 01:10:20;;;;;;;11.08;8.15;;;;;;;21.79;53.37;99842.22;1649553;85;21047;-64
2023/06/18 01:12:50;;;;;;;13.95;8.00;;;;;;;21.80;53.09;99841.09;1684111;84;21048;-65
2023/06/18 01:15:18;;;;;;;11.53;8.20;;;;;;;21.83;53.36;99841.92;1682379;85;21024;-65
2023/06/18 01:17:48;;;;;;;15.48;8.08;;;;;;;21.87;53.10;99851.95;1681125;85;21084;-65
2023/06/18 01:20:18;;;;;;;15.15;8.05;;;;;;;21.91;53.35;99852.21;1681276;85;21068;-66
2023/06/18 01:23:06;;;;;;;14.85;8.23;;;;;;;21.93;53.52;99849.41;1681274;85;21551;-66
2023/06/18 01:25:37;;;;;;;11.95;8.43;;;;;;;21.97;53.12;99847.72;1681370;85;21068;-66
2023/06/18 01:28:11;;;;;;;16.00;8.63;;;;;;;21.99;52.58;99850.22;1681227;85;21045;-66
2023/06/18 01:30:38;;;;;;;12.35;8.13;;;;;;;21.98;53.11;99849.95;1681070;85;21085;-65
2023/06/18 01:33:12;;;;;;;12.28;7.90;;;;;;;21.95;53.25;99854.14;1681136;85;21060;-64
2023/06/18 01:35:41;;;;;;;11.43;8.08;;;;;;;21.92;53.40;99849.14;1681226;85;21041;-65
2023/06/18 01:38:34;;;;;;;10.18;8.08;;;;;;;21.91;53.67;99850.81;1681314;85;21045;-66
2023/06/18 01:41:17;;;;;;;11.05;7.95;;;;;;;21.94;53.94;99854.43;1681251;85;21029;-64
2023/06/18 01:43:51;;;;;;;13.45;8.10;;;;;;;21.90;53.69;99850.55;1681107;85;21542;-66
2023/06/18 01:46:23;;;;;;;11.93;8.25;;;;;;;21.86;53.49;99851.67;1681314;85;21526;-65
2023/06/18 01:48:59;;;;;;;13.28;8.30;;;;;;;21.88;53.81;99861.98;1681170;85;21085;-66
2023/06/18 01:51:28;;;;;;;12.98;9.10;;;;;;;21.90;53.62;99856.95;1681181;85;21084;-67
2023/06/18 01:53:57;;;;;;;12.82;9.15;;;;;;;21.90;53.81;99861.14;1681122;85;21044;-66
2023/06/18 01:56:29;;;;;;;12.82;8.83;;;;;;;21.89;53.50;99862.82;1681114;85;21084;-66
2023/06/18 01:58:57;;;;;;;9.70;8.28;;;;;;;21.87;53.33;99857.53;1681125;85;21215;-64
2023/06/18 02:01:30;;;;;;;12.95;8.70;;;;;;;21.86;53.28;99864.78;1681355;85;21041;-65
2023/06/18 02:03:57;;;;;;;11.00;8.25;;;;;;;21.84;53.80;99861.72;1681282;85;21107;-65
2023/06/18 02:06:26;;;;;;;9.58;8.03;;;;;;;21.86;53.93;99866.18;1681341;85;21119;-65
2023/06/18 02:08:54;;;;;;;12.58;8.55;;;;;;;21.84;54.05;99867.30;1681084;85;21056;-64
2023/06/18 02:11:25;;;;;;;11.08;8.00;;;;;;;21.82;54.28;99870.10;1681328;85;21034;-65
2023/06/18 02:13:54;;;;;;;10.38;8.30;;;;;;;21.83;54.51;99870.38;1680977;85;21540;-65
2023/06/18 02:16:23;;;;;;;10.90;8.43;;;;;;;21.80;54.62;99866.20;1681078;85;20997;-64
2023/06/18 02:18:52;;;;;;;12.65;8.15;;;;;;;21.77;54.85;99865.38;1681128;85;21080;-64
2023/06/18 02:21:20;;;;;;;9.65;7.78;;;;;;;21.74;55.08;99864.55;1681023;85;21084;-63
2023/06/18 02:23:49;;;;;;;11.30;7.58;;;;;;;21.73;55.38;99865.67;1680896;85;21144;-64
2023/06/18 02:26:20;;;;;;;13.75;8.60;;;;;;;21.73;55.38;99874.59;1681136;85;21020;-65
2023/06/18 02:28:48;;;;;;;11.15;8.33;;;;;;;21.72;55.37;99873.77;1680906;85;21048;-65
2023/06/18 02:31:17;;;;;;;13.30;8.33;;;;;;;21.71;55.44;99874.88;1681035;85;21156;-65
2023/06/18 02:33:45;;;;;;;12.00;8.58;;;;;;;21.72;55.52;99882.69;1680861;85;21065;-64
2023/06/18 02:36:14;;;;;;;13.45;8.78;;;;;;;21.68;55.19;99879.63;1681078;85;21033;-65
2023/06/18 02:38:44;;;;;;;12.60;8.95;;;;;;;21.64;55.19;99877.13;1681036;85;21075;-67
2023/06/18 02:41:13;;;;;;;13.62;8.75;;;;;;;21.66;55.67;99884.66;1681013;85;21103;-65
2023/06/18 02:43:42;;;;;;;11.15;8.40;;;;;;;21.67;55.88;99884.93;1681121;85;21040;-65
2023/06/18 02:46:11;;;;;;;11.35;7.87;;;;;;;21.66;55.79;99881.87;1681082;85;21025;-65
2023/06/18 02:48:40;;;;;;;10.45;8.60;;;;;;;21.66;56.22;99884.66;1680839;85;21079;-65
2023/06/18 02:51:09;;;;;;;13.20;8.23;;;;;;;21.68;56.01;99889.39;1680883;85;21518;-65
2023/06/18 02:53:38;;;;;;;12.70;8.73;;;;;;;21.71;56.35;99886.03;1680872;85;21433;-66
2023/06/18 02:56:07;;;;;;;12.35;8.78;;;;;;;21.74;56.37;99885.47;1680870;85;21088;-64
2023/06/18 02:58:38;;;;;;;13.18;8.48;;;;;;;21.76;56.30;99887.41;1680884;85;21204;-64
2023/06/18 03:01:07;;;;;;;11.30;7.75;;;;;;;;;;1680851;85;21100;-65
2023/06/18 03:03:38;;;;;;;11.97;8.65;;;;;;;21.81;56.71;99889.34;1680901;85;21472;-64
2023/06/18 03:06:07;;;;;;;13.03;8.70;;;;;;;21.80;56.69;99891.30;1680934;85;21578;-66
2023/06/18 03:08:37;;;;;;;12.45;8.85;;;;;;;21.82;56.69;99884.88;1680850;85;21112;-65
2023/06/18 03:11:05;;;;;;;15.25;9.35;;;;;;;21.85;56.28;99880.69;1680874;85;21016;-66
2023/06/18 03:13:34;;;;;;;12.75;8.90;;;;;;;21.87;55.79;99889.61;1680913;85;21092;-65
2023/06/18 03:16:03;;;;;;;12.75;8.60;;;;;;;21.90;56.28;99886.80;1680820;85;21096;-65
2023/06/18 03:18:34;;;;;;;13.05;8.78;;;;;;;21.94;56.39;99893.48;1681130;85;21080;-65
2023/06/18 03:21:03;;;;;;;20.88;9.40;;;;;;;21.97;55.88;99892.35;1656472;85;21582;-66
2023/06/18 03:23:32;;;;;;;15.00;9.88;;;;;;;22.02;55.86;99897.08;1680885;85;21120;-65
2023/06/18 03:26:03;;;;;;;12.07;8.85;;;;;;;22.06;55.99;99897.64;1680908;85;21099;-67
2023/06/18 03:28:33;;;;;;;14.10;8.33;;;;;;;22.09;56.47;99903.22;1681043;85;21136;-64
2023/06/18 03:31:02;;;;;;;10.68;8.35;;;;;;;22.11;56.80;99899.61;1681103;85;21048;-64
2023/06/18 03:33:33;;;;;;;14.40;9.03;;;;;;;22.14;57.13;99897.64;1681149;85;21069;-66
2023/06/18 03:36:05;;;;;;;11.85;9.10;;;;;;;22.13;57.21;99901.55;1680857;85;21033;-65
2023/06/18 03:38:36;;;;;;;12.43;9.13;;;;;;;22.13;57.34;99902.39;1680798;85;21001;-65
2023/06/18 03:41:06;;;;;;;12.28;8.75;;;;;;;22.16;57.57;99900.98;1680885;85;21453;-65
2023/06/18 03:43:34;;;;;;;14.03;9.20;;;;;;;22.16;57.51;99905.16;1680993;85;21013;-64
2023/06/18 03:46:03;;;;;;;13.15;9.30;;;;;;;22.19;57.62;99907.94;1681056;85;21084;-65
2023/06/18 03:48:32;;;;;;;13.70;9.03;;;;;;;22.22;57.51;99908.77;1681109;85;21040;-65
2023/06/18 03:51:01;;;;;;;13.60;9.68;;;;;;;22.26;57.39;99914.88;1680928;85;21041;-65
2023/06/18 03:53:36;;;;;;;10.78;8.65;;;;;;;22.27;57.60;99909.58;1681023;85;21041;-64
2023/06/18 03:56:04;;;;;;;13.10;8.95;;;;;;;22.29;58.19;99907.33;1682424;85;21112;-65
2023/06/18 03:58:34;;;;;;;15.43;8.90;;;;;;;22.32;57.99;99908.16;1683343;85;21032;-64
2023/06/18 04:01:02;;;;;;;11.80;8.93;;;;;;;22.35;57.38;99908.14;1683675;85;21053;-65
2023/06/18 04:03:30;;;;;;;13.38;9.25;;;;;;;22.37;57.20;99914.27;1683316;85;21092;-66
2023/06/18 04:05:59;;;;;;;12.00;9.05;;;;;;;22.39;57.18;99914.25;1681434;85;21035;-66
2023/06/18 04:08:30;;;;;;;12.95;9.30;;;;;;;22.45;58.37;99916.45;1680990;85;21092;-66
2023/06/18 04:10:59;;;;;;;11.63;9.00;;;;;;;22.46;58.89;99915.33;1681062;85;21072;-65
2023/06/18 04:13:28;;;;;;;10.40;8.85;;;;;;;22.51;58.29;99914.47;1680779;85;21505;-65
2023/06/18 04:15:58;;;;;;;14.15;9.38;;;;;;;22.55;58.27;99918.35;1680780;85;21128;-65
2023/06/18 04:18:27;;;;;;;15.13;10.23;;;;;;;22.59;58.24;99920.28;1680855;85;21626;-65
2023/06/18 04:20:55;;;;;;;15.50;9.73;;;;;;;22.65;56.25;99919.69;1680936;85;21084;-64
2023/06/18 04:23:25;;;;;;;18.80;11.73;;;;;;;22.72;56.37;99929.97;1681020;85;21057;-66
2023/06/18 04:25:54;;;;;;;29.87;15.38;;;;;;;22.76;56.08;99923.55;1680865;85;21029;-64
2023/06/18 04:28:23;;;;;;;15.25;10.23;;;;;;;22.85;55.56;99924.36;1680800;85;21112;-65
2023/06/18 04:30:52;;;;;;;14.40;9.68;;;;;;;22.94;55.91;99923.45;1680945;85;21498;-65
2023/06/18 04:33:21;;;;;;;16.45;9.20;;;;;;;23.01;56.41;99924.52;1680951;85;21040;-65
2023/06/18 04:35:49;;;;;;;12.90;10.10;;;;;;;23.05;55.91;99925.03;1680963;85;21060;-65
2023/06/18 04:38:18;;;;;;;13.40;8.93;;;;;;;23.14;55.32;99928.60;1680851;85;21048;-64
2023/06/18 04:40:47;;;;;;;11.35;8.63;;;;;;;23.23;55.82;99926.84;1672176;85;21092;-65
2023/06/18 04:43:17;;;;;;;12.58;8.70;;;;;;;23.32;55.46;99927.88;1678485;85;21136;-64
2023/06/18 04:45:47;;;;;;;17.45;8.68;;;;;;;23.40;55.24;99925.84;1667929;85;21076;-65
2023/06/18 04:48:16;;;;;;;13.05;8.20;;;;;;;23.49;55.24;99928.30;1681013;85;21128;-65
2023/06/18 04:50:44;;;;;;;13.90;8.33;;;;;;;23.57;53.99;99938.05;1681121;85;21029;-66
2023/06/18 04:53:13;;;;;;;12.73;8.48;;;;;;;23.68;53.41;99936.81;1680790;85;21104;-65
2023/06/18 04:55:43;;;;;;;12.43;8.10;;;;;;;23.79;52.36;99936.97;1680992;85;21064;-65
2023/06/18 04:58:13;;;;;;;11.20;8.45;;;;;;;23.90;51.44;99941.89;1681083;85;21104;-65
2023/06/18 05:00:44;;;;;;;17.00;8.30;;;;;;;24.03;51.13;99946.77;1680889;85;21124;-64
2023/06/18 05:03:12;;;;;;;11.83;8.18;;;;;;;24.15;50.87;99946.39;1681119;85;21125;-65
2023/06/18 05:05:41;;;;;;;12.45;7.95;;;;;;;24.26;50.83;99946.52;1661482;85;21053;-65
2023/06/18 05:08:10;;;;;;;12.05;8.50;;;;;;;24.35;47.59;99947.55;1680994;85;21080;-65
2023/06/18 05:10:39;;;;;;;13.48;9.20;;;;;;;24.48;47.12;99949.63;1680962;85;21487;-65
2023/06/18 05:13:07;;;;;;;15.05;8.93;;;;;;;24.59;45.92;99962.35;1680854;85;21049;-65
2023/06/18 05:15:36;;;;;;;12.55;9.58;;;;;;;24.74;44.55;99951.53;1646589;85;21497;-66
2023/06/18 05:18:05;;;;;;;14.07;9.60;;;;;;;24.86;43.72;99954.70;1645622;87;21025;-66
2023/06/18 05:20:33;;;;;;;11.18;8.83;;;;;;;24.98;43.28;99949.24;1645377;87;21065;-66
2023/06/18 05:23:03;;;;;;;11.55;9.28;;;;;;;25.10;43.08;99953.81;1645466;87;21038;-65
2023/06/18 05:25:34;;;;;;;13.75;9.25;;;;;;;25.22;42.23;99949.39;1645295;86;21069;-68
2023/06/18 05:28:02;;;;;;;13.25;9.83;;;;;;;25.26;42.20;99951.02;1645469;87;21069;-67
2023/06/18 05:30:33;;;;;;;16.25;9.30;;;;;;;25.27;43.27;99954.92;1645680;87;21571;-65
2023/06/18 05:33:03;;;;;;;14.47;9.68;;;;;;;25.28;43.73;99952.38;1645568;87;21053;-65
2023/06/18 05:35:32;;;;;;;15.15;9.40;;;;;;;25.33;43.44;99951.45;1645644;87;21049;-65
2023/06/18 05:38:00;;;;;;;15.23;9.43;;;;;;;25.41;41.89;99959.20;1645576;87;21014;-65
2023/06/18 05:40:29;;;;;;;13.30;8.88;;;;;;;25.47;41.32;99955.73;1613342;89;21056;-63
2023/06/18 05:43:00;;;;;;;14.15;9.15;;;;;;;25.53;41.21;99965.73;1613613;89;21094;-66
2023/06/18 05:45:30;;;;;;;11.90;8.03;;;;;;;25.62;41.23;99958.84;1613564;89;21082;-67
2023/06/18 05:47:59;;;;;;;16.45;8.90;;;;;;;25.75;40.57;99963.68;1645369;87;21188;-64
2023/06/18 05:50:29;;;;;;;13.58;8.63;;;;;;;25.87;40.09;99956.99;1645519;86;21085;-66
2023/06/18 05:53:20;;;;;;;13.93;8.80;;;;;;;25.97;39.66;99965.78;1645469;87;21054;-65
2023/06/18 05:55:50;;;;;;;10.75;8.13;;;;;;;25.99;39.58;99964.34;1678646;84;21058;-65
2023/06/18 05:58:21;;;;;;;11.25;8.18;;;;;;;26.17;38.99;99966.81;1678714;85;21447;-65
2023/06/18 06:00:53;;;;;;;9.95;7.50;;;;;;;26.43;38.33;99975.00;1678625;85;21030;-65
2023/06/18 06:03:25;;;;;;;10.20;7.87;;;;;;;26.68;38.06;99970.00;1678801;85;21059;-65
2023/06/18 06:05:53;;;;;;;10.50;8.10;;;;;;;26.95;37.55;99969.94;1678561;84;21109;-65
2023/06/18 06:08:23;;;;;;;12.73;8.13;;;;;;;27.16;37.51;99971.71;1678598;85;21149;-66
2023/06/18 06:10:54;;;;;;;10.30;7.75;;;;;;;27.36;36.90;99972.64;1678383;85;21031;-66
2023/06/18 06:13:24;;;;;;;10.32;8.15;;;;;;;27.53;36.69;99971.11;1678669;85;21143;-65
2023/06/18 06:15:57;;;;;;;9.98;7.75;;;;;;;27.73;36.05;99974.82;1678263;84;21090;-67
2023/06/18 06:18:25;;;;;;;12.65;8.10;;;;;;;27.93;34.94;99974.84;1678700;85;21563;-65
2023/06/18 06:20:55;;;;;;;11.93;7.47;;;;;;;27.93;34.94;99974.84;1678461;85;21109;-66
2023/06/18 06:23:25;;;;;;;12.18;7.85;;;;;;;28.01;34.90;99969.86;1678738;85;21046;-65
2023/06/18 06:25:54;;;;;;;14.93;8.10;;;;;;;28.12;35.86;99974.62;1678624;85;21470;-65
2023/06/18 06:28:23;;;;;;;13.90;7.83;;;;;;;28.20;35.50;99979.47;1678863;85;21050;-65
2023/06/18 06:30:52;;;;;;;8.73;7.17;;;;;;;28.28;35.36;99980.11;1678716;85;21069;-65
2023/06/18 06:33:21;;;;;;;9.83;7.10;;;;;;;28.39;34.14;99985.70;1678899;84;21042;-65
2023/06/18 06:35:51;;;;;;;11.60;7.55;;;;;;;28.46;34.28;99986.63;1678698;85;21023;-65
2023/06/18 06:38:21;;;;;;;10.53;7.35;;;;;;;28.46;34.25;99993.10;1678690;84;21061;-65
2023/06/18 06:40:50;;;;;;;10.65;7.67;;;;;;;28.43;34.06;99990.94;1678659;84;21470;-65
2023/06/18 06:43:20;;;;;;;9.43;7.22;;;;;;;28.36;33.78;99987.19;1678742;85;21070;-64
2023/06/18 06:45:57;;;;;;;10.93;7.55;;;;;;;28.39;33.83;99987.11;1676768;85;21062;-66
2023/06/18 06:48:41;;;;;;;9.83;8.13;;;;;;;28.39;33.57;99985.13;1676430;85;21042;-65
2023/06/18 06:51:28;;;;;;;13.17;7.90;;;;;;;28.37;34.05;99988.02;1675373;84;21054;-65
2023/06/18 06:53:58;;;;;;;11.57;7.72;;;;;;;28.38;34.18;99991.09;1677314;85;21082;-65
2023/06/18 06:56:27;;;;;;;13.78;7.95;;;;;;;28.38;34.11;99993.91;1640869;86;21061;-66
2023/06/18 06:58:56;;;;;;;9.63;7.62;;;;;;;28.38;34.11;99993.91;1676247;85;21482;-65
2023/06/18 07:01:25;;;;;;;10.60;7.70;;;;;;;28.43;34.24;99989.53;1645239;87;21061;-65
2023/06/18 07:03:54;;;;;;;10.93;7.70;;;;;;;28.45;34.23;99994.84;1623693;88;21040;-65
2023/06/18 07:06:23;;;;;;;11.50;8.13;;;;;;;28.47;34.34;99998.16;1645157;87;21065;-66
2023/06/18 07:08:53;;;;;;;11.30;7.92;;;;;;;28.49;34.18;99997.26;1624135;88;21518;-65
2023/06/18 07:11:22;;;;;;;10.58;8.18;;;;;;;28.45;34.26;99998.48;1644863;87;21045;-65
2023/06/18 07:13:51;;;;;;;11.18;8.18;;;;;;;28.44;34.57;100003.05;1623985;88;21082;-66
2023/06/18 07:16:19;;;;;;;10.18;7.87;;;;;;;28.46;34.59;100001.56;1645334;87;21482;-65
2023/06/18 07:18:48;;;;;;;10.82;7.90;;;;;;;28.49;34.24;100004.30;1624451;88;21519;-65
2023/06/18 07:21:17;;;;;;;11.12;7.75;;;;;;;28.49;34.78;100002.89;1645417;87;21041;-65
2023/06/18 07:23:46;;;;;;;10.68;8.15;;;;;;;28.50;34.78;100005.38;1680225;84;21065;-66
2023/06/18 07:26:15;;;;;;;14.20;8.00;;;;;;;28.56;34.66;100007.47;1648318;87;21053;-65
2023/06/18 07:28:43;;;;;;;9.10;8.18;;;;;;;28.61;34.72;100009.59;1681951;84;21081;-65
2023/06/18 07:31:13;;;;;;;10.10;8.33;;;;;;;28.69;34.68;100006.55;1647692;87;21033;-66
2023/06/18 07:33:42;;;;;;;11.57;8.45;;;;;;;28.76;35.41;100001.25;1679253;85;21050;-64
2023/06/18 07:36:11;;;;;;;12.03;8.55;;;;;;;28.78;34.92;100003.74;1645328;86;21145;-65
2023/06/18 07:38:39;;;;;;;11.75;8.43;;;;;;;28.78;34.80;100005.16;1679259;85;21045;-65
2023/06/18 07:41:08;;;;;;;9.38;7.62;;;;;;;28.78;34.48;100005.98;1645281;87;21045;-65
2023/06/18 07:43:37;;;;;;;12.00;8.35;;;;;;;28.82;34.09;100011.80;1674554;85;21065;-64
2023/06/18 07:46:05;;;;;;;8.93;8.03;;;;;;;28.84;34.28;100013.73;1641175;87;21137;-66
2023/06/18 07:48:37;;;;;;;12.73;7.90;;;;;;;28.86;34.07;100011.42;1676138;85;21031;-64
2023/06/18 07:51:07;;;;;;;9.50;8.15;;;;;;;28.88;33.95;100004.29;1678588;85;21089;-65
2023/06/18 07:53:36;;;;;;;12.78;8.25;;;;;;;28.90;34.10;100003.37;1678613;85;21522;-65
2023/06/18 07:56:06;;;;;;;12.00;8.93;;;;;;;28.91;34.24;99999.40;1675776;85;21343;-67
2023/06/18 07:58:35;;;;;;;12.68;7.95;;;;;;;28.93;34.35;100006.13;1713229;84;21084;-65
2023/06/18 08:01:04;;;;;;;9.33;8.00;;;;;;;28.93;34.62;100008.94;1713334;84;21562;-66
2023/06/18 08:03:33;;;;;;;12.18;7.87;;;;;;;29.03;33.63;100010.86;1713413;84;21530;-66
2023/06/18 08:06:01;;;;;;;9.03;7.70;;;;;;;29.15;33.25;100015.84;1713578;84;21088;-65
2023/06/18 08:08:30;;;;;;;7.95;7.15;;;;;;;29.21;32.70;100014.52;1713333;83;21056;-65
2023/06/18 08:10:59;;;;;;;9.10;6.97;;;;;;;29.27;32.09;100019.45;1713580;84;21056;-65
2023/06/18 08:13:30;;;;;;;8.33;7.10;;;;;;;29.31;32.02;100017.05;1713311;82;21471;-67
2023/06/18 08:16:00;;;;;;;8.83;7.22;;;;;;;29.41;31.72;100013.64;1719682;83;21074;-67
2023/06/18 08:18:29;;;;;;;8.90;7.22;;;;;;;29.50;31.46;100013.08;1720540;83;21496;-67
2023/06/18 08:20:58;;;;;;;11.25;7.95;;;;;;;29.55;31.44;100017.15;1720300;82;21039;-66
2023/06/18 08:23:27;;;;;;;9.85;7.60;;;;;;;29.62;32.31;100022.53;1720475;82;21035;-66
2023/06/18 08:25:55;;;;;;;8.68;6.80;;;;;;;29.72;31.62;100014.88;1720311;83;21467;-68
2023/06/18 08:28:24;;;;;;;16.32;7.50;;;;;;;29.86;30.62;100006.45;1720416;82;21051;-67
2023/06/18 08:30:53;;;;;;;10.40;7.12;;;;;;;30.00;30.14;100002.05;1720660;83;21043;-67
2023/06/18 08:33:22;;;;;;;7.83;6.95;;;;;;;30.01;29.97;100007.94;1720526;83;21015;-67
2023/06/18 08:35:51;;;;;;;9.90;6.53;;;;;;;29.97;30.50;100003.55;1698049;82;21127;-67
2023/06/18 08:38:20;;;;;;;6.67;5.90;;;;;;;30.05;30.53;100008.12;1662724;85;21024;-66
2023/06/18 08:40:55;;;;;;;7.17;6.10;;;;;;;30.20;29.84;100006.16;1698978;83;21490;-67
2023/06/18 08:43:26;;;;;;;10.23;6.72;;;;;;;30.37;29.00;100005.25;1654241;86;21190;-67
2023/06/18 08:45:52;;;;;;;6.92;6.15;;;;;;;30.48;28.52;100000.30;1670320;86;21064;-68
2023/06/18 08:48:26;;;;;;;8.03;6.42;;;;;;;30.62;28.17;100003.52;1658852;85;21071;-68
2023/06/18 08:51:06;;;;;;;7.72;6.00;;;;;;;30.71;27.78;100003.72;1648544;87;21752;-67
2023/06/18 08:53:42;;;;;;;8.75;6.03;;;;;;;30.78;27.37;100006.84;1635146;87;21110;-67
2023/06/18 08:56:10;;;;;;;10.13;6.50;;;;;;;30.86;27.04;100003.70;1700798;84;21508;-64
2023/06/18 08:58:49;;;;;;;11.95;6.70;;;;;;;30.91;26.73;100004.33;1699532;84;21044;-64
2023/06/18 09:01:20;;;;;;;8.85;6.17;;;;;;;31.03;26.42;99998.50;1699605;84;21094;-64
2023/06/18 09:03:49;;;;;;;11.15;6.15;;;;;;;31.24;26.16;99998.57;1655515;87;21102;-65
2023/06/18 09:06:18;;;;;;;7.53;6.15;;;;;;;31.29;26.23;99996.95;1698633;84;21087;-65
2023/06/18 09:08:47;;;;;;;7.62;5.80;;;;;;;31.26;25.34;99992.80;1699010;84;21028;-67
2023/06/18 09:11:15;;;;;;;10.65;6.10;;;;;;;31.27;25.35;99993.05;1685602;84;21118;-67
2023/06/18 09:13:44;;;;;;;11.00;6.60;;;;;;;31.34;25.89;99982.58;1652480;86;21554;-66
2023/06/18 09:16:13;;;;;;;12.35;6.80;;;;;;;31.47;25.63;99989.36;1651971;87;21110;-63
2023/06/18 09:18:42;;;;;;;9.50;6.33;;;;;;;31.57;25.25;99990.94;1624126;88;21062;-65
2023/06/18 09:21:11;;;;;;;7.47;6.28;;;;;;;31.55;24.73;99990.45;1607604;88;21063;-64
2023/06/18 09:23:40;;;;;;;7.33;5.97;;;;;;;31.61;24.33;99990.48;1659119;86;21047;-66
2023/06/18 09:26:09;;;;;;;10.82;6.70;;;;;;;31.64;23.47;99986.12;1653323;86;21496;-67
2023/06/18 09:28:38;;;;;;;9.80;6.60;;;;;;;31.62;23.96;99990.72;1600369;87;21127;-66
2023/06/18 09:31:07;;;;;;;12.07;6.47;;;;;;;31.62;23.82;99990.72;1652197;87;21048;-66
2023/06/18 09:33:36;;;;;;;7.83;6.50;;;;;;;31.57;24.19;99983.85;1677729;85;21099;-65
2023/06/18 09:36:07;;;;;;;6.85;6.00;;;;;;;31.52;24.56;99982.06;1654153;87;21183;-64
2023/06/18 09:38:40;;;;;;;11.12;7.20;;;;;;;31.44;24.36;99977.31;1684504;85;21560;-65
2023/06/18 09:41:17;;;;;;;8.85;6.97;;;;;;;31.37;24.35;99970.55;1685248;84;21529;-64
2023/06/18 09:43:51;;;;;;;9.00;6.65;;;;;;;31.30;24.62;99965.45;1674178;85;21059;-65
2023/06/18 09:46:22;;;;;;;7.30;5.95;;;;;;;31.28;24.36;99966.98;1656160;87;21044;-66
2023/06/18 09:48:50;;;;;;;9.90;5.97;;;;;;;31.28;24.35;99960.73;1636022;87;21110;-66
2023/06/18 09:51:21;;;;;;;8.58;6.28;;;;;;;31.33;24.64;99958.27;1656043;86;21098;-66
2023/06/18 09:53:56;;;;;;;8.10;6.22;;;;;;;31.46;24.50;99965.05;1656256;87;21063;-66
2023/06/18 09:56:24;;;;;;;6.72;6.05;;;;;;;31.47;24.50;99959.62;1650688;85;21100;-67
2023/06/18 09:58:53;;;;;;;8.28;6.37;;;;;;;31.48;24.86;99966.12;1619448;88;21087;-64
2023/06/18 10:01:21;;;;;;;8.35;6.35;;;;;;;31.49;25.00;99967.19;1619386;88;21092;-65
2023/06/18 10:03:50;;;;;;;14.30;11.57;;;;;;;31.48;24.34;99962.70;1619435;88;21080;-65
2023/06/18 10:06:22;;;;;;;16.00;9.43;;;;;;;31.40;24.16;99961.37;1619350;88;21115;-65
2023/06/18 10:08:52;;;;;;;12.25;8.38;;;;;;;31.30;24.46;99960.38;1619383;88;21111;-65
2023/06/18 10:11:21;;;;;;;9.68;6.90;;;;;;;31.24;24.64;99966.02;1619591;88;21040;-66
2023/06/18 10:13:53;;;;;;;8.40;6.55;;;;;;;31.26;23.85;99958.00;1619519;88;21076;-64
2023/06/18 10:16:22;;;;;;;8.35;5.97;;;;;;;31.25;23.88;99956.34;1619540;88;21095;-65
2023/06/18 10:19:21;;;;;;;12.37;7.00;;;;;;;31.23;23.68;99957.28;1601497;88;21135;-66
2023/06/18 10:22:01;;;;;;;10.48;6.40;;;;;;;31.20;23.58;99955.35;1619335;88;21107;-66
2023/06/18 10:24:40;;;;;;;8.28;6.37;;;;;;;31.18;23.97;99965.37;1619366;88;21075;-66
2023/06/18 10:27:10;;;;;;;6.87;5.65;;;;;;;31.17;24.35;99958.05;1619420;88;21107;-66
2023/06/18 10:29:38;;;;;;;7.60;6.90;;;;;;;31.14;23.87;99957.30;1619469;88;21040;-66
2023/06/18 10:32:08;;;;;;;11.10;8.20;;;;;;;31.09;23.29;99953.27;1619418;88;21056;-66
2023/06/18 10:34:39;;;;;;;9.43;7.35;;;;;;;31.01;23.20;99957.81;1619506;88;21088;-67
2023/06/18 10:37:10;;;;;;;12.05;8.40;;;;;;;30.94;23.03;99962.37;1601784;88;21132;-65
2023/06/18 10:39:38;;;;;;;10.00;6.70;;;;;;;30.83;24.54;99952.88;1619580;88;21099;-67
2023/06/18 10:42:15;;;;;;;11.95;7.90;;;;;;;30.79;23.77;99955.33;1619466;88;21084;-60
2023/06/18 10:44:57;;;;;;;8.40;6.53;;;;;;;30.73;23.94;99953.88;1620772;87;21032;-62
2023/06/18 10:47:29;;;;;;;7.83;5.97;;;;;;;30.72;24.39;99962.12;1656039;86;21087;-66
2023/06/18 10:50:10;;;;;;;9.35;6.58;;;;;;;30.63;24.08;99957.94;1626976;87;21139;-68
2023/06/18 10:52:44;;;;;;;9.20;6.72;;;;;;;30.60;24.44;99958.62;1631362;88;21047;-66
2023/06/18 10:55:26;;;;;;;9.23;6.70;;;;;;;30.57;24.54;99958.69;1653705;87;21161;-65
2023/06/18 10:58:03;;;;;;;10.08;6.05;;;;;;;30.52;24.73;99959.44;1665400;85;21548;-67
2023/06/18 11:00:40;;;;;;;7.50;5.90;;;;;;;30.40;24.73;99958.75;1688250;84;21006;-67
2023/06/18 11:03:16;;;;;;;9.28;6.20;;;;;;;30.33;24.59;99960.46;1687942;84;21094;-69
2023/06/18 11:05:49;;;;;;;7.05;5.95;;;;;;;30.25;24.70;99949.44;1688046;85;21058;-67
2023/06/18 11:08:27;;;;;;;6.78;5.85;;;;;;;30.18;25.22;99951.97;1687909;85;21038;-67
2023/06/18 11:11:06;;;;;;;7.62;6.15;;;;;;;30.17;25.56;99953.14;1688105;85;21026;-66
2023/06/18 11:13:42;;;;;;;7.85;6.10;;;;;;;30.21;25.26;99945.05;1687927;85;21026;-66
2023/06/18 11:16:16;;;;;;;11.18;7.55;;;;;;;30.23;25.64;99956.02;1687911;85;21067;-63
2023/06/18 11:18:45;;;;;;;9.48;7.00;;;;;;;30.23;25.03;99947.54;1688027;84;21049;-64
2023/06/18 11:21:18;;;;;;;7.25;6.50;;;;;;;30.28;24.59;99958.07;1709588;82;21044;-67
2023/06/18 11:23:47;;;;;;;10.30;6.50;;;;;;;30.29;24.35;99954.66;1710946;84;21005;-66
2023/06/18 11:26:19;;;;;;;9.05;6.28;;;;;;;30.26;24.54;99953.92;1709122;84;21488;-68
2023/06/18 11:28:48;;;;;;;7.90;6.50;;;;;;;30.25;24.95;99957.92;1710703;84;21080;-66
2023/06/18 11:31:17;;;;;;;8.70;7.12;;;;;;;30.30;25.54;99954.91;1694058;84;21124;-67
2023/06/18 11:33:48;;;;;;;9.40;7.58;;;;;;;30.29;25.15;99950.42;1714160;84;21004;-67
2023/06/18 11:36:18;;;;;;;9.13;6.83;;;;;;;30.27;25.36;99958.41;1711367;83;21044;-65
2023/06/18 11:38:49;;;;;;;7.75;6.05;;;;;;;30.26;25.35;99960.41;1709322;84;21025;-66
2023/06/18 11:41:24;;;;;;;9.18;6.90;;;;;;;30.23;25.01;99957.44;1644881;83;21132;-65